createdAt,value
2018-02-22T00:00:52.323Z,98376.13
2018-02-22T00:01:57.092Z,98381.09
2018-02-22T00:03:01.743Z,98377.42
2018-02-22T00:04:06.375Z,98370.84
2018-02-22T00:05:11.025Z,98372.50
2018-02-22T00:06:16.044Z,98376.20
2018-02-22T00:07:20.714Z,98369.64
2018-02-22T00:08:25.369Z,98369.66
2018-02-22T00:09:30.013Z,98364.70
2018-02-22T00:10:34.687Z,98364.70
2018-02-22T00:11:39.175Z,98369.22
2018-02-22T00:12:43.957Z,98367.57
2018-02-22T00:13:48.457Z,98368.84
2018-02-22T00:14:53.149Z,98369.66
2018-02-22T00:15:57.695Z,98366.78
2018-02-22T00:17:02.338Z,98366.36
2018-02-22T00:18:07.014Z,98363.91
2018-02-22T00:19:12.037Z,98359.39
2018-02-22T00:20:16.774Z,98363.51
2018-02-22T00:21:21.510Z,98357.75
2018-02-22T00:22:26.230Z,98364.69
2018-02-22T00:23:31.626Z,98363.06
2018-02-22T00:24:36.375Z,98357.33
2018-02-22T00:25:41.399Z,98358.09
2018-02-22T00:26:46.255Z,98350.72
2018-02-22T00:27:50.990Z,98358.98
2018-02-22T00:28:55.746Z,98357.75
2018-02-22T00:30:00.489Z,98354.05
2018-02-22T00:31:05.186Z,98348.70
2018-02-22T00:32:10.119Z,98354.86
2018-02-22T00:33:14.805Z,98347.86
2018-02-22T00:34:19.449Z,98343.33
2018-02-22T00:35:24.080Z,98341.66
2018-02-22T00:36:28.791Z,98342.47
2018-02-22T00:37:33.538Z,98339.61
2018-02-22T00:38:38.623Z,98346.20
2018-02-22T00:39:43.398Z,98350.35
2018-02-22T00:40:48.247Z,98344.19
2018-02-22T00:41:52.969Z,98342.09
2018-02-22T00:42:57.727Z,98337.51
2018-02-22T00:44:02.538Z,98340.81
2018-02-22T00:45:07.576Z,98344.94
2018-02-22T00:46:12.276Z,98345.34
2018-02-22T00:47:17.020Z,98341.67
2018-02-22T00:48:21.692Z,98344.58
2018-02-22T00:49:26.307Z,98337.20
2018-02-22T00:50:31.000Z,98337.59
2018-02-22T00:51:36.088Z,98344.17
2018-02-22T00:52:40.752Z,98336.39
2018-02-22T00:53:45.503Z,98338.03
2018-02-22T00:54:50.149Z,98337.19
2018-02-22T00:55:54.908Z,98333.92
2018-02-22T00:56:59.683Z,98334.36
2018-02-22T00:58:04.780Z,98324.50
2018-02-22T00:59:09.506Z,98327.38
2018-02-22T01:00:14.264Z,98326.52
2018-02-22T01:01:19.078Z,98326.55
2018-02-22T01:02:23.862Z,98328.59
2018-02-22T01:03:28.603Z,98326.92
2018-02-22T01:04:33.667Z,98320.37
2018-02-22T01:05:38.392Z,98321.98
2018-02-22T01:06:43.145Z,98321.15
2018-02-22T01:07:47.847Z,98318.28
2018-02-22T01:08:52.609Z,98314.56
2018-02-22T01:09:57.430Z,98316.98
2018-02-22T01:11:02.466Z,98326.85
2018-02-22T01:12:07.196Z,98324.02
2018-02-22T01:13:11.941Z,98322.33
2018-02-22T01:14:16.707Z,98312.51
2018-02-22T01:15:21.456Z,98315.80
2018-02-22T01:16:26.185Z,98312.52
2018-02-22T01:17:31.261Z,98317.85
2018-02-22T01:18:35.945Z,98317.41
2018-02-22T01:19:40.584Z,98320.73
2018-02-22T01:20:45.436Z,98314.98
2018-02-22T01:21:50.066Z,98319.09
2018-02-22T01:22:54.729Z,98320.73
2018-02-22T01:23:59.662Z,98313.74
2018-02-22T01:25:04.226Z,98320.33
2018-02-22T01:26:08.802Z,98314.54
2018-02-22T01:27:13.357Z,98321.16
2018-02-22T01:28:17.923Z,98322.38
2018-02-22T01:29:22.510Z,98312.95
2018-02-22T01:30:27.360Z,98322.77
2018-02-22T01:31:31.980Z,98314.95
2018-02-22T01:32:36.523Z,98318.28
2018-02-22T01:33:41.146Z,98317.03
2018-02-22T01:34:45.744Z,98329.37
2018-02-22T01:35:50.298Z,98329.40
2018-02-22T01:36:55.297Z,98333.08
2018-02-22T01:37:59.993Z,98333.06
2018-02-22T01:39:04.748Z,98336.32
2018-02-22T01:40:09.312Z,98331.81
2018-02-22T01:41:13.828Z,98333.48
2018-02-22T01:42:18.321Z,98331.41
2018-02-22T01:43:23.138Z,98328.92
2018-02-22T01:44:27.660Z,98328.55
2018-02-22T01:45:32.536Z,98337.16
2018-02-22T01:46:37.043Z,98327.72
2018-02-22T01:47:41.641Z,98324.02
2018-02-22T01:48:46.461Z,98328.12
2018-02-22T01:49:51.251Z,98325.67
2018-02-22T01:50:55.919Z,98322.39
2018-02-22T01:52:00.478Z,98320.38
2018-02-22T01:53:05.206Z,98322.44
2018-02-22T01:54:09.866Z,98323.25
2018-02-22T01:55:14.487Z,98321.19
2018-02-22T01:56:19.318Z,98312.92
2018-02-22T01:57:23.800Z,98316.20
2018-02-22T01:58:28.220Z,98311.27
2018-02-22T01:59:32.632Z,98314.58
2018-02-22T02:00:37.064Z,98319.53
2018-02-22T02:01:41.478Z,98314.59
2018-02-22T02:02:46.181Z,98322.01
2018-02-22T02:03:50.679Z,98315.87
2018-02-22T02:04:55.183Z,98312.55
2018-02-22T02:05:59.707Z,98309.67
2018-02-22T02:07:04.224Z,98305.98
2018-02-22T02:08:08.727Z,98309.72
2018-02-22T02:09:13.491Z,98305.59
2018-02-22T02:10:18.012Z,98304.36
2018-02-22T02:11:22.516Z,98311.77
2018-02-22T02:12:27.042Z,98307.64
2018-02-22T02:13:31.571Z,98305.61
2018-02-22T02:14:36.073Z,98315.41
2018-02-22T02:15:40.933Z,98312.55
2018-02-22T02:16:45.491Z,98316.70
2018-02-22T02:17:49.994Z,98308.45
2018-02-22T02:18:55.324Z,98308.05
2018-02-22T02:19:59.919Z,98314.19
2018-02-22T02:21:04.480Z,98308.83
2018-02-22T02:22:09.288Z,98310.94
2018-02-22T02:23:13.819Z,98305.60
2018-02-22T02:24:18.341Z,98301.87
2018-02-22T02:25:22.832Z,98303.90
2018-02-22T02:26:27.453Z,98297.72
2018-02-22T02:27:31.974Z,98301.88
2018-02-22T02:28:37.623Z,98299.86
2018-02-22T02:29:42.183Z,98295.73
2018-02-22T02:30:46.752Z,98293.27
2018-02-22T02:31:51.286Z,98297.36
2018-02-22T02:32:55.741Z,98296.55
2018-02-22T02:34:00.444Z,98295.31
2018-02-22T02:35:05.277Z,98296.55
2018-02-22T02:36:09.812Z,98300.66
2018-02-22T02:37:15.321Z,98297.02
2018-02-22T02:38:19.994Z,98296.98
2018-02-22T02:39:24.681Z,98294.11
2018-02-22T02:40:29.366Z,98300.67
2018-02-22T02:41:34.396Z,98303.56
2018-02-22T02:42:39.202Z,98290.77
2018-02-22T02:43:43.899Z,98303.94
2018-02-22T02:44:48.604Z,98296.57
2018-02-22T02:45:53.244Z,98295.74
2018-02-22T02:46:57.909Z,98293.30
2018-02-22T02:48:02.862Z,98297.78
2018-02-22T02:49:07.527Z,98296.95
2018-02-22T02:50:12.243Z,98294.52
2018-02-22T02:51:16.947Z,98296.13
2018-02-22T02:52:21.620Z,98297.36
2018-02-22T02:53:26.369Z,98297.79
2018-02-22T02:54:31.262Z,98292.88
2018-02-22T02:55:35.806Z,98297.38
2018-02-22T02:56:40.314Z,98300.70
2018-02-22T02:57:44.862Z,98297.81
2018-02-22T02:58:49.430Z,98299.05
2018-02-22T02:59:54.138Z,98295.77
2018-02-22T03:00:58.953Z,98295.34
2018-02-22T03:02:03.468Z,98298.63
2018-02-22T03:03:07.986Z,98301.13
2018-02-22T03:04:12.531Z,98289.22
2018-02-22T03:05:17.045Z,98297.02
2018-02-22T03:06:21.545Z,98304.84
2018-02-22T03:07:26.380Z,98294.56
2018-02-22T03:08:30.908Z,98298.28
2018-02-22T03:09:35.593Z,98293.74
2018-02-22T03:10:40.263Z,98295.00
2018-02-22T03:11:44.936Z,98293.34
2018-02-22T03:12:49.637Z,98290.88
2018-02-22T03:13:54.631Z,98294.15
2018-02-22T03:14:59.314Z,98294.56
2018-02-22T03:16:03.952Z,98292.92
2018-02-22T03:17:08.655Z,98299.93
2018-02-22T03:18:13.328Z,98297.02
2018-02-22T03:19:18.100Z,98297.44
2018-02-22T03:20:24.017Z,98302.36
2018-02-22T03:21:28.712Z,98297.03
2018-02-22T03:22:33.376Z,98297.86
2018-02-22T03:23:38.052Z,98305.67
2018-02-22T03:24:43.676Z,98300.73
2018-02-22T03:25:48.403Z,98298.69
2018-02-22T03:26:53.385Z,98301.54
2018-02-22T03:27:58.031Z,98307.30
2018-02-22T03:29:02.766Z,98300.73
2018-02-22T03:30:07.485Z,98295.84
2018-02-22T03:31:12.252Z,98308.16
2018-02-22T03:32:16.979Z,98305.28
2018-02-22T03:33:21.768Z,98306.50
2018-02-22T03:34:26.275Z,98308.56
2018-02-22T03:35:30.835Z,98298.73
2018-02-22T03:36:35.350Z,98306.52
2018-02-22T03:37:39.959Z,98298.70
2018-02-22T03:38:44.480Z,98304.48
2018-02-22T03:39:49.345Z,98301.98
2018-02-22T03:40:54.047Z,98307.31
2018-02-22T03:41:58.592Z,98311.44
2018-02-22T03:43:03.238Z,98311.85
2018-02-22T03:44:07.926Z,98306.94
2018-02-22T03:45:12.636Z,98293.37
2018-02-22T03:46:17.621Z,98308.17
2018-02-22T03:47:22.314Z,98306.53
2018-02-22T03:48:27.060Z,98304.89
2018-02-22T03:49:32.792Z,98302.43
2018-02-22T03:50:37.912Z,98303.23
2018-02-22T03:51:42.696Z,98305.69
2018-02-22T03:52:47.755Z,98304.05
2018-02-22T03:53:52.509Z,98301.18
2018-02-22T03:54:57.290Z,98307.77
2018-02-22T03:56:02.093Z,98306.52
2018-02-22T03:57:06.841Z,98308.16
2018-02-22T03:58:11.672Z,98309.40
2018-02-22T03:59:16.728Z,98306.53
2018-02-22T04:00:21.515Z,98305.28
2018-02-22T04:01:27.047Z,98310.23
2018-02-22T04:02:31.727Z,98303.63
2018-02-22T04:03:36.465Z,98306.94
2018-02-22T04:04:41.190Z,98304.06
2018-02-22T04:05:46.287Z,98311.86
2018-02-22T04:06:50.951Z,98317.63
2018-02-22T04:07:55.656Z,98315.95
2018-02-22T04:09:00.328Z,98313.91
2018-02-22T04:10:05.012Z,98311.47
2018-02-22T04:11:09.655Z,98311.88
2018-02-22T04:12:14.309Z,98309.41
2018-02-22T04:13:19.043Z,98310.20
2018-02-22T04:14:23.818Z,98311.05
2018-02-22T04:15:28.659Z,98307.77
2018-02-22T04:16:33.441Z,98310.63
2018-02-22T04:17:38.449Z,98304.06
2018-02-22T04:18:43.186Z,98310.63
2018-02-22T04:19:48.036Z,98305.70
2018-02-22T04:20:52.884Z,98310.64
2018-02-22T04:21:57.580Z,98311.03
2018-02-22T04:23:02.252Z,98307.77
2018-02-22T04:24:07.189Z,98309.80
2018-02-22T04:25:11.837Z,98310.64
2018-02-22T04:26:16.535Z,98303.26
2018-02-22T04:27:21.213Z,98306.53
2018-02-22T04:28:25.898Z,98315.98
2018-02-22T04:29:30.568Z,98311.05
2018-02-22T04:30:35.263Z,98313.94
2018-02-22T04:31:39.796Z,98317.63
2018-02-22T04:32:44.455Z,98313.52
2018-02-22T04:33:49.044Z,98314.31
2018-02-22T04:34:53.641Z,98317.61
2018-02-22T04:35:59.234Z,98310.64
2018-02-22T04:37:04.006Z,98313.92
2018-02-22T04:38:08.676Z,98308.19
2018-02-22T04:39:13.399Z,98308.99
2018-02-22T04:40:18.048Z,98318.02
2018-02-22T04:41:22.752Z,98319.67
2018-02-22T04:42:27.731Z,98313.50
2018-02-22T04:43:34.283Z,98319.66
2018-02-22T04:44:45.644Z,98319.25
2018-02-22T04:45:50.396Z,98319.69
2018-02-22T04:46:55.005Z,98323.78
2018-02-22T04:47:59.707Z,98318.04
2018-02-22T04:49:04.681Z,98312.67
2018-02-22T04:50:09.298Z,98325.83
2018-02-22T04:51:13.945Z,98323.37
2018-02-22T04:52:18.526Z,98320.49
2018-02-22T04:53:23.108Z,98322.53
2018-02-22T04:54:27.792Z,98321.31
2018-02-22T04:55:32.757Z,98327.48
2018-02-22T04:56:37.523Z,98322.98
2018-02-22T04:57:42.977Z,98321.73
2018-02-22T04:58:47.674Z,98326.66
2018-02-22T04:59:52.382Z,98331.59
2018-02-22T05:00:57.059Z,98329.14
2018-02-22T05:02:02.089Z,98329.94
2018-02-22T05:03:06.833Z,98327.08
2018-02-22T05:04:11.570Z,98330.77
2018-02-22T05:05:16.275Z,98335.28
2018-02-22T05:06:20.957Z,98325.02
2018-02-22T05:07:25.691Z,98331.59
2018-02-22T05:08:30.667Z,98329.13
2018-02-22T05:09:35.404Z,98325.44
2018-02-22T05:10:40.112Z,98324.21
2018-02-22T05:11:44.820Z,98334.06
2018-02-22T05:12:49.425Z,98328.70
2018-02-22T05:13:54.017Z,98329.93
2018-02-22T05:14:58.924Z,98334.86
2018-02-22T05:16:03.528Z,98336.51
2018-02-22T05:17:08.215Z,98334.89
2018-02-22T05:18:12.908Z,98331.60
2018-02-22T05:19:17.625Z,98331.60
2018-02-22T05:20:23.286Z,98331.60
2018-02-22T05:21:28.218Z,98329.95
2018-02-22T05:22:32.936Z,98335.30
2018-02-22T05:23:37.591Z,98325.45
2018-02-22T05:24:42.307Z,98323.38
2018-02-22T05:25:46.997Z,98329.13
2018-02-22T05:26:51.840Z,98323.38
2018-02-22T05:27:56.843Z,98328.30
2018-02-22T05:29:01.620Z,98322.55
2018-02-22T05:30:06.416Z,98331.58
2018-02-22T05:31:11.194Z,98325.02
2018-02-22T05:32:15.978Z,98329.11
2018-02-22T05:33:21.067Z,98331.17
2018-02-22T05:34:26.019Z,98331.59
2018-02-22T05:35:30.808Z,98324.61
2018-02-22T05:36:35.615Z,98327.89
2018-02-22T05:37:40.398Z,98318.87
2018-02-22T05:38:45.089Z,98331.59
2018-02-22T05:39:50.057Z,98323.38
2018-02-22T05:40:54.739Z,98323.37
2018-02-22T05:41:59.604Z,98324.20
2018-02-22T05:43:04.348Z,98331.59
2018-02-22T05:44:08.963Z,98329.13
2018-02-22T05:45:13.578Z,98327.89
2018-02-22T05:46:18.796Z,98330.77
2018-02-22T05:47:23.603Z,98326.25
2018-02-22T05:48:28.400Z,98332.00
2018-02-22T05:49:33.209Z,98331.59
2018-02-22T05:50:38.016Z,98333.64
2018-02-22T05:51:42.828Z,98337.75
2018-02-22T05:52:47.567Z,98335.28
2018-02-22T05:53:52.292Z,98335.69
2018-02-22T05:54:57.045Z,98332.39
2018-02-22T05:56:01.843Z,98332.42
2018-02-22T05:57:06.670Z,98334.03
2018-02-22T05:58:11.712Z,98336.91
2018-02-22T05:59:16.374Z,98336.08
2018-02-22T06:00:21.100Z,98332.39
2018-02-22T06:01:25.805Z,98335.67
2018-02-22T06:02:30.507Z,98339.78
2018-02-22T06:03:35.195Z,98338.14
2018-02-22T06:04:40.205Z,98334.85
2018-02-22T06:05:44.942Z,98338.95
2018-02-22T06:06:49.373Z,98336.91
2018-02-22T06:07:53.802Z,98336.08
2018-02-22T06:08:58.272Z,98336.91
2018-02-22T06:10:02.966Z,98342.23
2018-02-22T06:11:08.021Z,98341.01
2018-02-22T06:12:12.684Z,98341.45
2018-02-22T06:13:17.290Z,98347.60
2018-02-22T06:14:21.970Z,98342.27
2018-02-22T06:15:26.569Z,98344.73
2018-02-22T06:16:31.193Z,98342.68
2018-02-22T06:17:35.931Z,98345.55
2018-02-22T06:18:40.527Z,98350.07
2018-02-22T06:19:45.155Z,98345.11
2018-02-22T06:20:49.813Z,98353.36
2018-02-22T06:21:54.453Z,98353.77
2018-02-22T06:22:59.392Z,98350.45
2018-02-22T06:24:04.024Z,98355.00
2018-02-22T06:25:08.682Z,98357.84
2018-02-22T06:26:13.508Z,98357.42
2018-02-22T06:27:18.245Z,98355.78
2018-02-22T06:28:22.996Z,98363.58
2018-02-22T06:29:28.131Z,98356.20
2018-02-22T06:30:32.813Z,98359.06
2018-02-22T06:31:37.559Z,98360.30
2018-02-22T06:32:42.455Z,98358.69
2018-02-22T06:33:47.306Z,98358.28
2018-02-22T06:34:52.133Z,98356.23
2018-02-22T06:35:57.362Z,98357.84
2018-02-22T06:37:02.194Z,98362.80
2018-02-22T06:38:06.952Z,98361.97
2018-02-22T06:39:11.783Z,98363.20
2018-02-22T06:40:16.526Z,98370.59
2018-02-22T06:41:21.186Z,98359.52
2018-02-22T06:42:26.109Z,98363.17
2018-02-22T06:43:30.831Z,98367.72
2018-02-22T06:44:35.469Z,98365.25
2018-02-22T06:45:40.101Z,98362.77
2018-02-22T06:46:44.690Z,98368.13
2018-02-22T06:47:49.999Z,98373.88
2018-02-22T06:48:54.862Z,98365.25
2018-02-22T06:49:59.501Z,98368.56
2018-02-22T06:51:04.201Z,98371.42
2018-02-22T06:52:08.937Z,98378.00
2018-02-22T06:53:13.683Z,98379.22
2018-02-22T06:54:18.464Z,98382.08
2018-02-22T06:55:23.612Z,98377.99
2018-02-22T06:56:28.370Z,98377.58
2018-02-22T06:57:33.202Z,98382.10
2018-02-22T06:58:38.067Z,98384.55
2018-02-22T06:59:42.929Z,98380.85
2018-02-22T07:00:47.784Z,98384.56
2018-02-22T07:01:52.872Z,98384.16
2018-02-22T07:02:57.484Z,98385.36
2018-02-22T07:04:02.272Z,98376.27
2018-02-22T07:05:07.055Z,98382.41
2018-02-22T07:06:11.868Z,98376.66
2018-02-22T07:07:16.557Z,98377.86
2018-02-22T07:08:21.681Z,98381.57
2018-02-22T07:09:26.931Z,98379.07
2018-02-22T07:10:31.711Z,98378.19
2018-02-22T07:11:36.548Z,98385.19
2018-02-22T07:12:41.292Z,98385.46
2018-02-22T07:13:46.007Z,98385.84
2018-02-22T07:14:51.007Z,98375.56
2018-02-22T07:15:55.767Z,98386.26
2018-02-22T07:17:00.457Z,98379.20
2018-02-22T07:18:05.182Z,98380.44
2018-02-22T07:19:09.889Z,98377.98
2018-02-22T07:20:14.667Z,98376.75
2018-02-22T07:21:19.690Z,98387.38
2018-02-22T07:22:24.388Z,98390.22
2018-02-22T07:23:29.109Z,98390.16
2018-02-22T07:24:33.810Z,98383.43
2018-02-22T07:25:38.527Z,98393.09
2018-02-22T07:26:43.293Z,98398.82
2018-02-22T07:27:48.321Z,98394.31
2018-02-22T07:28:53.054Z,98391.63
2018-02-22T07:29:57.786Z,98393.45
2018-02-22T07:31:02.526Z,98395.97
2018-02-22T07:32:07.201Z,98393.48
2018-02-22T07:33:11.904Z,98398.36
2018-02-22T07:34:16.993Z,98399.94
2018-02-22T07:35:21.667Z,98402.00
2018-02-22T07:36:26.375Z,98400.62
2018-02-22T07:37:31.107Z,98392.81
2018-02-22T07:38:35.809Z,98404.20
2018-02-22T07:39:40.465Z,98399.36
2018-02-22T07:40:45.655Z,98400.53
2018-02-22T07:41:50.163Z,98402.95
2018-02-22T07:42:54.728Z,98399.70
2018-02-22T07:43:59.275Z,98403.80
2018-02-22T07:45:03.841Z,98405.17
2018-02-22T07:46:08.691Z,98393.77
2018-02-22T07:47:13.222Z,98400.09
2018-02-22T07:48:17.749Z,98399.70
2018-02-22T07:49:22.305Z,98399.50
2018-02-22T07:50:26.892Z,98400.80
2018-02-22T07:51:31.457Z,98399.02
2018-02-22T07:52:36.519Z,98395.17
2018-02-22T07:53:41.073Z,98395.61
2018-02-22T07:54:45.758Z,98394.06
2018-02-22T07:55:50.382Z,98394.39
2018-02-22T07:56:54.944Z,98394.05
2018-02-22T07:57:59.471Z,98394.11
2018-02-22T07:59:04.351Z,98389.55
2018-02-22T08:00:09.365Z,98397.28
2018-02-22T08:01:13.897Z,98398.92
2018-02-22T08:02:18.508Z,98394.17
2018-02-22T08:04:45.392Z,98397.77
2018-02-22T08:05:50.060Z,98400.56
2018-02-22T08:06:54.771Z,98402.05
2018-02-22T08:07:59.620Z,98398.52
2018-02-22T08:09:05.137Z,98400.46
2018-02-22T08:10:09.971Z,98402.80
2018-02-22T08:11:14.954Z,98405.31
2018-02-22T08:12:19.721Z,98405.79
2018-02-22T08:13:24.538Z,98409.50
2018-02-22T08:14:29.351Z,98403.95
2018-02-22T08:15:33.993Z,98408.48
2018-02-22T08:16:38.561Z,98410.38
2018-02-22T08:17:43.403Z,98411.03
2018-02-22T08:18:48.123Z,98410.70
2018-02-22T08:19:52.931Z,98409.25
2018-02-22T08:20:57.597Z,98407.69
2018-02-22T08:22:02.943Z,98410.17
2018-02-22T08:23:07.690Z,98402.17
2018-02-22T08:24:12.888Z,98406.38
2018-02-22T08:25:17.749Z,98400.56
2018-02-22T08:26:22.551Z,98409.67
2018-02-22T08:27:27.283Z,98408.23
2018-02-22T08:28:32.049Z,98405.14
2018-02-22T08:29:36.797Z,98411.31
2018-02-22T08:30:41.947Z,98407.10
2018-02-22T08:31:46.685Z,98401.95
2018-02-22T08:32:51.382Z,98397.88
2018-02-22T08:33:56.512Z,98408.95
2018-02-22T08:35:01.340Z,98403.94
2018-02-22T08:36:06.221Z,98399.31
2018-02-22T08:37:11.304Z,98400.63
2018-02-22T08:38:16.129Z,98400.62
2018-02-22T08:39:21.040Z,98399.87
2018-02-22T08:40:25.805Z,98404.52
2018-02-22T08:41:30.658Z,98405.59
2018-02-22T08:42:35.549Z,98400.74
2018-02-22T08:43:40.652Z,98398.53
2018-02-22T08:44:45.492Z,98395.73
2018-02-22T08:45:50.270Z,98400.27
2018-02-22T08:46:55.096Z,98398.27
2018-02-22T08:47:59.924Z,98402.48
2018-02-22T08:49:04.786Z,98404.80
2018-02-22T08:50:09.572Z,98397.70
2018-02-22T08:51:14.382Z,98391.73
2018-02-22T08:52:19.185Z,98391.13
2018-02-22T08:53:23.918Z,98395.59
2018-02-22T08:54:28.683Z,98399.83
2018-02-22T08:55:34.015Z,98392.84
2018-02-22T08:56:38.767Z,98395.55
2018-02-22T08:57:43.708Z,98395.48
2018-02-22T08:58:48.608Z,98390.02
2018-02-22T08:59:53.553Z,98400.74
2018-02-22T09:00:58.804Z,98391.31
2018-02-22T09:02:04.176Z,98390.75
2018-02-22T09:03:09.071Z,98391.81
2018-02-22T09:04:14.063Z,98388.04
2018-02-22T09:05:18.892Z,98389.89
2018-02-22T09:06:24.293Z,98390.57
2018-02-22T09:07:30.263Z,98385.80
2018-02-22T09:08:35.899Z,98396.38
2018-02-22T09:09:40.831Z,98392.10
2018-02-22T09:10:45.679Z,98401.92
2018-02-22T09:11:50.712Z,98383.27
2018-02-22T09:12:56.024Z,98385.34
2018-02-22T09:14:00.725Z,98387.45
2018-02-22T09:15:06.478Z,98393.51
2018-02-22T09:16:11.147Z,98393.77
2018-02-22T09:17:15.780Z,98381.77
2018-02-22T09:18:20.978Z,98382.27
2018-02-22T09:19:25.763Z,98383.09
2018-02-22T09:20:30.523Z,98377.42
2018-02-22T09:21:36.300Z,98376.19
2018-02-22T09:22:41.214Z,98388.52
2018-02-22T09:23:47.267Z,98374.40
2018-02-22T09:24:52.147Z,98385.50
2018-02-22T09:25:57.002Z,98389.06
2018-02-22T09:27:01.770Z,98389.81
2018-02-22T09:28:06.920Z,98381.96
2018-02-22T09:29:11.763Z,98388.15
2018-02-22T09:30:16.876Z,98363.63
2018-02-22T09:31:21.580Z,98374.44
2018-02-22T09:32:26.265Z,98375.20
2018-02-22T09:33:31.837Z,98379.28
2018-02-22T09:34:37.027Z,98383.40
2018-02-22T09:35:41.814Z,98386.84
2018-02-22T09:36:46.693Z,98391.71
2018-02-22T09:37:51.453Z,98383.59
2018-02-22T09:38:56.183Z,98378.67
2018-02-22T09:40:01.132Z,98375.75
2018-02-22T09:41:06.292Z,98384.18
2018-02-22T09:42:11.073Z,98385.61
2018-02-22T09:43:15.903Z,98383.33
2018-02-22T09:44:21.263Z,98378.70
2018-02-22T09:45:26.124Z,98378.00
2018-02-22T09:46:31.095Z,98378.67
2018-02-22T09:47:35.922Z,98377.55
2018-02-22T09:48:40.733Z,98371.38
2018-02-22T09:49:45.532Z,98382.16
2018-02-22T09:50:50.409Z,98383.53
2018-02-22T09:51:55.895Z,98379.73
2018-02-22T09:53:01.144Z,98385.97
2018-02-22T09:54:05.811Z,98379.23
2018-02-22T09:55:10.580Z,98375.98
2018-02-22T09:56:15.309Z,98386.53
2018-02-22T09:57:20.036Z,98380.15
2018-02-22T09:58:24.759Z,98365.31
2018-02-22T09:59:29.963Z,98372.17
2018-02-22T10:00:34.734Z,98382.97
2018-02-22T10:01:39.488Z,98379.80
2018-02-22T10:02:44.196Z,98375.90
2018-02-22T10:03:48.947Z,98374.67
2018-02-22T10:04:53.556Z,98365.05
2018-02-22T10:05:58.293Z,98376.03
2018-02-22T10:07:02.813Z,98377.78
2018-02-22T10:08:07.336Z,98362.02
2018-02-22T10:09:11.906Z,98370.73
2018-02-22T10:10:16.500Z,98367.68
2018-02-22T10:11:21.055Z,98369.55
2018-02-22T10:12:25.601Z,98361.27
2018-02-22T10:13:30.126Z,98376.74
2018-02-22T10:14:34.680Z,98365.62
2018-02-22T10:15:39.926Z,98370.17
2018-02-22T10:16:44.925Z,98369.31
2018-02-22T10:17:49.646Z,98370.91
2018-02-22T10:18:54.311Z,98362.27
2018-02-22T10:19:58.950Z,98368.28
2018-02-22T10:21:03.589Z,98369.52
2018-02-22T10:22:08.283Z,98369.41
2018-02-22T10:23:13.507Z,98366.45
2018-02-22T10:24:18.296Z,98367.27
2018-02-22T10:25:23.145Z,98369.66
2018-02-22T10:26:27.966Z,98363.96
2018-02-22T10:27:32.969Z,98365.73
2018-02-22T10:28:38.597Z,98367.75
2018-02-22T10:29:43.656Z,98354.79
2018-02-22T10:30:48.368Z,98365.37
2018-02-22T10:31:53.089Z,98356.66
2018-02-22T10:32:57.803Z,98369.86
2018-02-22T10:34:02.661Z,98365.91
2018-02-22T10:35:07.410Z,98371.92
2018-02-22T10:36:12.448Z,98356.72
2018-02-22T10:37:17.190Z,98364.00
2018-02-22T10:38:22.020Z,98371.20
2018-02-22T10:39:26.809Z,98367.36
2018-02-22T10:40:31.669Z,98365.25
2018-02-22T10:41:37.027Z,98360.42
2018-02-22T10:42:42.648Z,98361.90
2018-02-22T10:43:47.878Z,98367.80
2018-02-22T10:44:53.070Z,98368.54
2018-02-22T10:45:58.205Z,98369.08
2018-02-22T10:47:03.293Z,98357.11
2018-02-22T10:48:08.531Z,98354.17
2018-02-22T10:49:14.215Z,98355.52
2018-02-22T10:50:19.486Z,98348.47
2018-02-22T10:51:24.834Z,98348.92
2018-02-22T10:52:30.395Z,98343.28
2018-02-22T10:53:35.649Z,98346.03
2018-02-22T10:54:41.048Z,98354.64
2018-02-22T10:55:46.686Z,98356.23
2018-02-22T10:56:51.959Z,98356.41
2018-02-22T10:57:56.964Z,98350.51
2018-02-22T10:59:02.097Z,98349.45
2018-02-22T11:00:07.274Z,98350.91
2018-02-22T11:01:18.078Z,98348.98
2018-02-22T11:02:53.390Z,98351.41
2018-02-22T11:03:59.405Z,98352.07
2018-02-22T11:05:05.313Z,98343.89
2018-02-22T11:06:10.822Z,98343.47
2018-02-22T11:07:16.227Z,98343.32
2018-02-22T11:08:22.225Z,98338.33
2018-02-22T11:09:27.711Z,98336.45
2018-02-22T11:10:33.084Z,98338.38
2018-02-22T11:11:38.367Z,98335.50
2018-02-22T11:12:43.998Z,98330.91
2018-02-22T11:13:49.819Z,98332.63
2018-02-22T11:14:55.236Z,98333.88
2018-02-22T11:16:00.587Z,98331.89
2018-02-22T11:17:05.948Z,98330.45
2018-02-22T11:18:11.391Z,98325.52
2018-02-22T11:19:16.904Z,98327.38
2018-02-22T11:20:23.191Z,98338.99
2018-02-22T11:21:28.438Z,98335.88
2018-02-22T11:22:33.597Z,98331.87
2018-02-22T11:23:39.217Z,98335.69
2018-02-22T11:24:44.586Z,98335.42
2018-02-22T11:25:50.062Z,98333.28
2018-02-22T11:26:55.580Z,98331.95
2018-02-22T11:28:00.944Z,98337.58
2018-02-22T11:29:06.577Z,98335.20
2018-02-22T11:30:11.958Z,98324.19
2018-02-22T11:31:17.307Z,98329.98
2018-02-22T11:32:22.585Z,98326.56
2018-02-22T11:33:28.178Z,98323.69
2018-02-22T11:34:33.491Z,98327.84
2018-02-22T11:35:38.610Z,98326.16
2018-02-22T11:36:44.071Z,98330.09
2018-02-22T11:37:52.733Z,98334.09
2018-02-22T11:39:11.381Z,98323.60
2018-02-22T11:40:23.984Z,98324.55
2018-02-22T11:41:29.330Z,98324.59
2018-02-22T11:42:34.509Z,98336.53
2018-02-22T11:43:39.862Z,98328.12
2018-02-22T11:44:45.212Z,98325.13
2018-02-22T11:45:50.857Z,98328.91
2018-02-22T11:46:56.292Z,98329.38
2018-02-22T11:48:02.000Z,98320.04
2018-02-22T11:49:07.556Z,98326.61
2018-02-22T11:50:12.939Z,98325.48
2018-02-22T11:51:19.181Z,98313.91
2018-02-22T11:52:24.751Z,98324.45
2018-02-22T11:53:30.747Z,98324.22
2018-02-22T11:54:36.317Z,98320.05
2018-02-22T11:55:41.671Z,98308.94
2018-02-22T11:56:47.532Z,98324.23
2018-02-22T11:57:53.469Z,98330.46
2018-02-22T11:58:59.631Z,98327.75
2018-02-22T12:00:05.707Z,98324.19
2018-02-22T12:01:11.442Z,98319.20
2018-02-22T12:02:17.246Z,98320.80
2018-02-22T12:03:22.789Z,98318.43
2018-02-22T12:04:29.082Z,98315.77
2018-02-22T12:05:36.810Z,98311.23
2018-02-22T12:06:42.297Z,98318.04
2018-02-22T12:07:49.332Z,98311.86
2018-02-22T12:08:56.559Z,98311.32
2018-02-22T12:10:02.540Z,98315.38
2018-02-22T12:11:10.214Z,98320.42
2018-02-22T12:12:16.424Z,98323.98
2018-02-22T12:13:22.323Z,98308.70
2018-02-22T12:14:27.098Z,98315.16
2018-02-22T12:15:31.983Z,98308.45
2018-02-22T12:16:36.698Z,98304.45
2018-02-22T12:17:41.746Z,98305.68
2018-02-22T12:18:47.627Z,98300.70
2018-02-22T12:19:52.467Z,98288.84
2018-02-22T12:20:57.257Z,98291.78
2018-02-22T12:22:02.171Z,98300.75
2018-02-22T12:23:07.088Z,98302.91
2018-02-22T12:24:12.504Z,98309.41
2018-02-22T12:25:17.350Z,98301.09
2018-02-22T12:26:22.689Z,98299.32
2018-02-22T12:27:27.581Z,98300.44
2018-02-22T12:28:32.622Z,98282.66
2018-02-22T12:29:37.697Z,98276.94
2018-02-22T12:30:43.019Z,98293.05
2018-02-22T12:31:47.999Z,98294.81
2018-02-22T12:32:52.808Z,98285.35
2018-02-22T12:33:57.676Z,98301.27
2018-02-22T12:35:02.447Z,98285.30
2018-02-22T12:36:07.223Z,98296.33
2018-02-22T12:37:12.526Z,98288.84
2018-02-22T12:38:17.237Z,98286.37
2018-02-22T12:39:22.286Z,98284.02
2018-02-22T12:40:27.024Z,98284.46
2018-02-22T12:41:31.731Z,98277.39
2018-02-22T12:42:36.436Z,98280.87
2018-02-22T12:43:41.443Z,98278.97
2018-02-22T12:44:46.156Z,98271.66